createdAt,value
2022-11-25T00:00:41.285Z,18.00
2022-11-25T00:03:10.705Z,19.00
2022-11-25T00:05:40.234Z,18.10
2022-11-25T00:08:09.657Z,16.80
2022-11-25T00:10:39.043Z,16.70
2022-11-25T00:13:11.051Z,15.40
2022-11-25T00:15:40.470Z,15.50
2022-11-25T00:18:09.973Z,29.37
2022-11-25T00:20:40.371Z,13.97
2022-11-25T00:23:09.791Z,24.10
2022-11-25T00:25:39.249Z,15.63
2022-11-25T00:28:11.255Z,26.13
2022-11-25T00:30:40.683Z,23.23
2022-11-25T00:33:10.411Z,21.90
2022-11-25T00:35:40.915Z,21.50
2022-11-25T00:38:10.379Z,17.83
2022-11-25T00:40:39.785Z,22.27
2022-11-25T00:43:24.854Z,18.60
2022-11-25T00:45:54.270Z,18.50
2022-11-25T00:48:23.737Z,17.97
2022-11-25T00:50:53.138Z,15.43
2022-11-25T00:53:22.795Z,16.43
2022-11-25T00:56:04.847Z,19.70
2022-11-25T00:58:37.508Z,19.77
2022-11-25T01:01:07.207Z,16.20
2022-11-25T01:03:37.174Z,16.77
2022-11-25T01:06:08.021Z,18.03
2022-11-25T01:08:38.186Z,16.90
2022-11-25T01:11:09.744Z,18.60
2022-11-25T01:13:41.944Z,20.40
2022-11-25T01:16:14.336Z,30.30
2022-11-25T01:18:44.116Z,26.43
2022-11-25T01:21:14.923Z,24.00
2022-11-25T01:23:45.242Z,23.53
2022-11-25T01:26:16.399Z,18.40
2022-11-25T01:28:48.782Z,37.97
2022-11-25T01:31:19.982Z,25.53
2022-11-25T01:33:51.474Z,19.57
2022-11-25T01:36:21.952Z,20.23
2022-11-25T01:38:53.532Z,21.57
2022-11-25T01:41:24.413Z,19.67
2022-11-25T01:44:11.823Z,18.10
2022-11-25T01:47:00.347Z,24.97
2022-11-25T01:49:33.654Z,20.27
2022-11-25T01:52:06.734Z,20.10
2022-11-25T01:54:39.120Z,20.57
2022-11-25T01:57:13.317Z,17.60
2022-11-25T01:59:48.357Z,17.20
2022-11-25T02:02:18.098Z,18.80
2022-11-25T02:04:47.741Z,20.10
2022-11-25T02:07:21.120Z,17.07
2022-11-25T02:09:51.519Z,17.93
2022-11-25T02:12:21.575Z,17.90
2022-11-25T02:14:54.831Z,18.70
2022-11-25T02:17:24.290Z,20.50
2022-11-25T02:20:01.529Z,18.93
2022-11-25T02:22:38.563Z,18.60
2022-11-25T02:25:17.800Z,17.97
2022-11-25T02:27:49.472Z,17.80
2022-11-25T02:30:19.083Z,18.50
2022-11-25T02:32:48.912Z,19.67
2022-11-25T02:35:31.057Z,18.20
2022-11-25T02:38:04.064Z,18.07
2022-11-25T02:40:37.928Z,18.80
2022-11-25T02:43:07.396Z,16.87
2022-11-25T02:45:44.568Z,17.70
2022-11-25T02:48:14.271Z,18.60
2022-11-25T02:50:43.799Z,17.47
2022-11-25T02:53:13.507Z,18.23
2022-11-25T02:55:45.556Z,17.40
2022-11-25T02:58:15.342Z,17.40
2022-11-25T03:00:45.759Z,17.50
2022-11-25T03:03:15.808Z,17.00
2022-11-25T03:05:45.341Z,16.93
2022-11-25T03:08:14.804Z,16.63
2022-11-25T03:10:46.872Z,16.90
2022-11-25T03:13:16.569Z,17.87
2022-11-25T03:15:45.980Z,16.93
2022-11-25T03:18:15.395Z,15.83
2022-11-25T03:20:44.858Z,16.07
2022-11-25T03:23:14.524Z,17.13
2022-11-25T03:25:46.556Z,19.03
2022-11-25T03:28:16.074Z,16.70
2022-11-25T03:30:45.985Z,17.87
2022-11-25T03:33:15.503Z,17.17
2022-11-25T03:35:44.903Z,17.40
2022-11-25T03:38:14.295Z,16.87
2022-11-25T03:40:47.365Z,16.60
2022-11-25T03:43:17.046Z,17.07
2022-11-25T03:45:47.557Z,15.13
2022-11-25T03:48:17.249Z,16.60
2022-11-25T03:50:46.658Z,17.13
2022-11-25T03:53:16.091Z,18.10
2022-11-25T03:55:50.400Z,16.80
2022-11-25T03:58:19.855Z,17.17
2022-11-25T04:00:49.265Z,18.50
2022-11-25T04:03:18.646Z,16.83
2022-11-25T04:05:48.079Z,17.97
2022-11-25T04:08:17.446Z,17.80
2022-11-25T04:10:49.392Z,16.47
2022-11-25T04:13:16.250Z,17.40
2022-11-25T04:15:48.632Z,17.73
2022-11-25T04:18:19.065Z,17.53
2022-11-25T04:20:49.130Z,17.30
2022-11-25T04:23:18.520Z,18.60
2022-11-25T04:25:52.017Z,18.53
2022-11-25T04:28:21.540Z,17.73
2022-11-25T04:30:50.975Z,16.90
2022-11-25T04:33:20.417Z,15.70
2022-11-25T04:35:50.398Z,16.60
2022-11-25T04:38:19.789Z,16.00
2022-11-25T04:40:51.822Z,17.03
2022-11-25T04:43:21.319Z,15.97
2022-11-25T04:46:12.921Z,17.60
2022-11-25T04:48:40.931Z,16.30
2022-11-25T04:51:10.385Z,15.73
2022-11-25T04:53:39.802Z,15.97
2022-11-25T04:56:12.374Z,15.97
2022-11-25T04:58:54.230Z,28.27
2022-11-25T05:01:23.746Z,26.37
2022-11-25T05:03:57.279Z,29.47
2022-11-25T05:06:27.156Z,21.37
2022-11-25T05:08:56.609Z,25.67
2022-11-25T05:11:28.665Z,15.50
2022-11-25T05:13:58.027Z,14.80
2022-11-25T05:16:27.644Z,14.77
2022-11-25T05:18:58.154Z,14.50
2022-11-25T05:21:28.092Z,14.07
2022-11-25T05:23:57.868Z,13.40
2022-11-25T05:26:29.881Z,12.40
2022-11-25T05:28:59.265Z,12.57
2022-11-25T05:31:28.686Z,11.27
2022-11-25T05:33:58.104Z,12.30
2022-11-25T05:36:27.540Z,11.77
2022-11-25T05:38:56.940Z,10.63
2022-11-25T05:41:28.996Z,10.70
2022-11-25T05:43:58.364Z,11.60
2022-11-25T05:46:28.092Z,12.50
2022-11-25T05:48:57.850Z,11.43
2022-11-25T05:51:28.267Z,10.93
2022-11-25T05:53:58.133Z,11.80
2022-11-25T05:56:30.129Z,11.20
2022-11-25T05:59:00.458Z,12.40
2022-11-25T06:01:29.897Z,13.53
2022-11-25T06:04:02.375Z,11.00
2022-11-25T06:06:32.283Z,12.37
2022-11-25T06:09:01.787Z,12.40
2022-11-25T06:11:34.184Z,11.10
2022-11-25T06:14:03.705Z,10.30
2022-11-25T06:16:33.195Z,11.20
2022-11-25T06:19:05.582Z,10.70
2022-11-25T06:21:35.070Z,11.70
2022-11-25T06:24:04.427Z,10.80
2022-11-25T06:26:36.581Z,13.77
2022-11-25T06:29:05.996Z,10.97
2022-11-25T06:31:35.516Z,10.53
2022-11-25T06:34:06.557Z,11.60
2022-11-25T06:36:35.982Z,11.50
2022-11-25T06:39:05.394Z,11.73
2022-11-25T06:41:37.449Z,11.77
2022-11-25T06:44:07.222Z,12.50
2022-11-25T06:46:36.672Z,12.47
2022-11-25T06:49:06.064Z,12.00
2022-11-25T06:51:35.615Z,13.07
2022-11-25T06:54:05.104Z,12.70
2022-11-25T06:56:37.148Z,12.60
2022-11-25T06:59:06.712Z,13.40
2022-11-25T07:01:36.222Z,12.83
2022-11-25T07:04:07.233Z,12.30
2022-11-25T07:06:36.867Z,12.67
2022-11-25T07:09:07.254Z,13.67
2022-11-25T07:11:41.131Z,13.10
2022-11-25T07:14:12.915Z,12.67
2022-11-25T07:16:44.160Z,12.20
2022-11-25T07:19:14.661Z,11.80
2022-11-25T07:21:45.740Z,11.40
2022-11-25T07:24:16.878Z,14.80
2022-11-25T07:26:48.948Z,10.57
2022-11-25T07:32:10.904Z,12.80
2022-11-25T07:34:40.724Z,11.43
2022-11-25T07:37:10.218Z,12.70
2022-11-25T07:39:39.876Z,13.47
2022-11-25T07:42:12.062Z,9.93
2022-11-25T07:44:41.424Z,12.37
2022-11-25T07:47:10.819Z,11.07
2022-11-25T07:49:40.338Z,11.53
2022-11-25T07:52:09.762Z,11.10
2022-11-25T07:54:39.229Z,10.90
2022-11-25T07:57:08.643Z,11.57
2022-11-25T07:59:41.630Z,10.30
2022-11-25T08:02:12.277Z,6.30
2022-11-25T08:04:41.693Z,8.47
2022-11-25T08:07:11.199Z,9.93
2022-11-25T08:09:40.691Z,10.70
2022-11-25T08:12:10.216Z,10.60
2022-11-25T08:14:42.244Z,8.70
2022-11-25T08:17:14.343Z,8.83
2022-11-25T08:19:43.784Z,9.37
2022-11-25T08:22:13.198Z,10.60
2022-11-25T08:24:42.654Z,7.80
2022-11-25T08:27:12.381Z,8.70
2022-11-25T08:29:44.390Z,7.97
2022-11-25T08:32:13.900Z,8.30
2022-11-25T08:34:45.275Z,7.17
2022-11-25T08:37:14.756Z,9.20
2022-11-25T08:39:52.227Z,6.80
2022-11-25T08:42:22.577Z,6.80
2022-11-25T08:44:57.470Z,7.67
2022-11-25T08:47:27.227Z,6.70
2022-11-25T08:49:57.540Z,6.67
2022-11-25T08:52:28.983Z,6.60
2022-11-25T08:54:58.439Z,7.30
2022-11-25T08:57:27.896Z,6.63
2022-11-25T08:59:59.975Z,6.63
2022-11-25T09:02:29.553Z,6.10
2022-11-25T09:04:58.965Z,7.13
2022-11-25T09:07:30.821Z,7.53
2022-11-25T09:10:01.525Z,7.20
2022-11-25T09:12:30.983Z,6.60
2022-11-25T09:15:03.260Z,6.70
2022-11-25T09:17:34.577Z,8.10
2022-11-25T09:20:05.234Z,6.13
2022-11-25T09:22:34.693Z,7.67
2022-11-25T09:25:04.155Z,7.33
2022-11-25T09:27:34.213Z,5.90
2022-11-25T09:30:06.941Z,5.60
2022-11-25T09:32:36.425Z,7.83
2022-11-25T09:35:06.672Z,6.23
2022-11-25T09:37:36.075Z,6.00
2022-11-25T09:40:05.511Z,6.50
2022-11-25T09:42:53.416Z,6.70
2022-11-25T09:45:40.977Z,6.40
2022-11-25T09:48:33.669Z,6.33
2022-11-25T09:51:11.980Z,7.17
2022-11-25T09:53:46.157Z,11.63
2022-11-25T09:56:24.594Z,9.60
2022-11-25T09:58:56.919Z,7.30
2022-11-25T10:01:31.578Z,14.10
2022-11-25T10:04:04.587Z,10.03
2022-11-25T10:06:35.710Z,8.20
2022-11-25T10:09:07.635Z,9.67
2022-11-25T10:11:47.866Z,12.67
2022-11-25T10:14:22.977Z,14.57
2022-11-25T10:16:59.455Z,8.50
2022-11-25T10:19:39.896Z,10.40
2022-11-25T10:22:23.342Z,15.83
2022-11-25T10:24:54.682Z,9.03
2022-11-25T10:27:28.314Z,7.40
2022-11-25T10:30:05.338Z,9.00
2022-11-25T10:32:43.727Z,7.17
2022-11-25T10:35:21.704Z,8.13
2022-11-25T10:37:54.995Z,8.47
2022-11-25T10:40:24.564Z,9.00
2022-11-25T10:42:54.541Z,8.70
2022-11-25T10:45:28.123Z,7.80
2022-11-25T10:48:19.754Z,8.80
2022-11-25T10:51:00.892Z,8.10
2022-11-25T10:53:31.113Z,8.33
2022-11-25T10:56:03.684Z,7.90
2022-11-25T10:58:35.235Z,8.27
2022-11-25T11:01:07.951Z,8.00
2022-11-25T11:03:39.988Z,8.63
2022-11-25T11:06:09.448Z,9.20
2022-11-25T11:08:43.567Z,7.50
2022-11-25T11:11:19.492Z,9.63
2022-11-25T11:13:50.654Z,8.30
2022-11-25T11:16:32.412Z,9.57
2022-11-25T11:19:04.556Z,11.00
2022-11-25T11:21:36.386Z,8.77
2022-11-25T11:24:17.422Z,8.00
2022-11-25T11:26:46.850Z,8.43
2022-11-25T11:29:19.602Z,8.57
2022-11-25T11:31:51.894Z,8.47
2022-11-25T11:34:38.486Z,8.93
2022-11-25T11:37:23.152Z,8.80
2022-11-25T11:40:19.521Z,10.53
2022-11-25T11:42:59.675Z,8.37
2022-11-25T11:45:44.098Z,13.17
2022-11-25T11:48:19.180Z,26.60
2022-11-25T11:50:53.226Z,23.70
2022-11-25T11:53:25.912Z,17.90
2022-11-25T11:59:00.430Z,9.23
2022-11-25T12:01:41.432Z,11.73
2022-11-25T12:04:18.955Z,11.73
2022-11-25T12:07:01.229Z,14.30
2022-11-25T12:09:32.788Z,11.73
2022-11-25T12:12:06.082Z,14.60
2022-11-25T12:14:39.360Z,12.30
2022-11-25T12:17:12.890Z,9.10
2022-11-25T12:19:47.256Z,12.87
2022-11-25T12:22:23.691Z,8.80
2022-11-25T12:24:56.810Z,31.23
2022-11-25T12:27:30.701Z,12.20
2022-11-25T12:30:04.977Z,33.17
2022-11-25T12:33:05.287Z,9.90
2022-11-25T12:35:43.519Z,7.60
2022-11-25T12:38:24.008Z,24.80
2022-11-25T12:41:03.325Z,20.53
2022-11-25T12:43:39.366Z,9.40
2022-11-25T12:46:16.626Z,21.47
2022-11-25T12:48:46.123Z,8.73
2022-11-25T12:51:26.372Z,17.47
2022-11-25T12:54:06.640Z,14.47
2022-11-25T12:56:49.237Z,13.47
2022-11-25T12:59:34.156Z,20.50
2022-11-25T13:02:23.118Z,15.47
2022-11-25T13:08:03.639Z,9.93
2022-11-25T13:10:52.256Z,15.77
2022-11-25T13:10:55.633Z,13.00
2022-11-25T13:13:30.180Z,7.83
2022-11-25T13:16:02.022Z,11.70
2022-11-25T13:18:34.034Z,12.57
2022-11-25T13:21:10.422Z,10.70
2022-11-25T13:23:56.203Z,8.17
2022-11-25T13:26:51.248Z,8.93
2022-11-25T13:30:03.162Z,9.10
2022-11-25T13:32:35.047Z,7.77
2022-11-25T13:35:40.245Z,9.77
2022-11-25T13:38:25.095Z,9.43
2022-11-25T13:41:00.563Z,9.20
2022-11-25T13:43:32.852Z,8.10
2022-11-25T13:46:02.332Z,7.93
2022-11-25T13:48:34.364Z,7.70
2022-11-25T13:51:19.209Z,8.03
2022-11-25T13:53:54.884Z,7.73
2022-11-25T13:56:31.800Z,8.70
2022-11-25T13:59:40.328Z,9.33
2022-11-25T14:02:38.292Z,7.83
2022-11-25T14:05:24.266Z,8.13
2022-11-25T14:07:59.432Z,8.37
2022-11-25T14:10:45.717Z,13.10
2022-11-25T14:13:46.447Z,13.97
2022-11-25T14:16:45.787Z,8.67
2022-11-25T14:19:51.879Z,16.67
2022-11-25T14:22:41.762Z,17.80
2022-11-25T14:25:18.092Z,12.67
2022-11-25T14:27:49.107Z,8.50
2022-11-25T14:30:19.834Z,7.53
2022-11-25T14:32:57.790Z,8.63
2022-11-25T14:35:31.180Z,9.30
2022-11-25T14:38:03.225Z,8.53
2022-11-25T14:40:37.300Z,9.13
2022-11-25T14:43:09.784Z,12.70
2022-11-25T14:45:39.426Z,9.60
2022-11-25T14:48:22.862Z,9.47
2022-11-25T14:50:58.799Z,9.43
2022-11-25T14:53:28.433Z,10.40
2022-11-25T14:56:00.786Z,8.97
2022-11-25T14:58:30.329Z,10.17
2022-11-25T15:01:04.126Z,9.57
2022-11-25T15:03:37.241Z,10.00
2022-11-25T15:06:08.344Z,10.80
2022-11-25T15:08:42.713Z,15.70
2022-11-25T15:11:16.316Z,11.00
2022-11-25T15:13:46.900Z,9.40
2022-11-25T15:16:18.321Z,10.43
2022-11-25T15:18:53.378Z,11.40
2022-11-25T15:21:26.079Z,10.70
2022-11-25T15:23:55.869Z,12.93
2022-11-25T15:26:32.505Z,12.70
2022-11-25T15:29:03.371Z,13.57
2022-11-25T15:31:34.456Z,10.43
2022-11-25T15:34:08.288Z,10.73
2022-11-25T15:36:37.898Z,10.37
2022-11-25T15:39:18.658Z,29.80
2022-11-25T15:41:49.787Z,16.30
2022-11-25T15:44:23.320Z,22.70
2022-11-25T15:47:05.083Z,25.87
2022-11-25T15:49:38.414Z,11.00
2022-11-25T15:52:09.891Z,11.57
2022-11-25T15:54:43.015Z,11.57
2022-11-25T15:57:18.866Z,11.27
2022-11-25T15:59:53.187Z,10.47
2022-11-25T16:02:39.052Z,14.90
2022-11-25T16:05:27.859Z,11.33
2022-11-25T16:08:19.346Z,20.53
2022-11-25T16:10:55.356Z,11.83
2022-11-25T16:13:35.580Z,12.50
2022-11-25T16:16:13.263Z,11.50
2022-11-25T16:18:46.306Z,11.77
2022-11-25T16:21:20.106Z,11.87
2022-11-25T16:23:52.066Z,16.73
2022-11-25T16:26:27.970Z,12.00
2022-11-25T16:28:58.643Z,13.07
2022-11-25T16:31:29.016Z,11.70
2022-11-25T16:34:00.230Z,11.80
2022-11-25T16:36:32.398Z,13.20
2022-11-25T16:39:01.888Z,12.00
2022-11-25T16:41:31.407Z,12.33
2022-11-25T16:44:04.783Z,12.97
2022-11-25T16:46:37.358Z,13.57
2022-11-25T16:49:11.163Z,14.43
2022-11-25T16:51:43.268Z,16.17
2022-11-25T16:54:12.911Z,14.93
2022-11-25T16:56:43.668Z,13.03
2022-11-25T16:59:17.888Z,13.83
2022-11-25T17:01:48.759Z,14.00
2022-11-25T17:04:19.971Z,12.17
2022-11-25T17:07:24.277Z,14.43
2022-11-25T17:09:41.778Z,13.57
2022-11-25T17:12:16.672Z,15.07
2022-11-25T17:14:46.481Z,13.03
2022-11-25T17:17:24.644Z,15.03
2022-11-25T17:19:54.710Z,14.07
2022-11-25T17:22:37.546Z,15.40
2022-11-25T17:25:09.254Z,14.70
2022-11-25T17:27:38.789Z,15.30
2022-11-25T17:30:10.694Z,15.07
2022-11-25T17:32:40.232Z,14.67
2022-11-25T17:35:18.542Z,15.00
2022-11-25T17:37:51.870Z,14.60
2022-11-25T17:40:21.384Z,23.73
2022-11-25T17:42:51.332Z,17.40
2022-11-25T17:45:22.563Z,18.27
2022-11-25T17:47:52.367Z,17.40
2022-11-25T17:50:23.369Z,17.10
2022-11-25T17:52:55.552Z,16.97
2022-11-25T17:55:25.545Z,16.70
2022-11-25T17:57:55.295Z,16.27
2022-11-25T18:00:25.216Z,15.70
2022-11-25T18:02:54.768Z,16.73
2022-11-25T18:05:26.619Z,17.77
2022-11-25T18:07:58.732Z,18.07
2022-11-25T18:10:29.776Z,15.83
2022-11-25T18:12:59.881Z,19.07
2022-11-25T18:15:31.556Z,16.13
2022-11-25T18:18:05.037Z,16.47
2022-11-25T18:20:34.831Z,16.73
2022-11-25T18:23:09.607Z,17.33
2022-11-25T18:25:39.273Z,17.13
2022-11-25T18:28:09.521Z,17.73
2022-11-25T18:30:41.167Z,18.20
2022-11-25T18:33:14.089Z,18.20
2022-11-25T18:35:43.884Z,18.37
2022-11-25T18:38:17.146Z,18.90
2022-11-25T18:40:51.989Z,18.70
2022-11-25T18:43:25.752Z,18.87
2022-11-25T18:45:57.267Z,18.13
2022-11-25T18:48:28.584Z,21.57
2022-11-25T18:50:58.723Z,18.67
2022-11-25T18:53:30.792Z,21.43
2022-11-25T18:56:00.220Z,18.37
2022-11-25T18:58:32.663Z,19.77
2022-11-25T19:01:05.513Z,19.77
2022-11-25T19:03:35.256Z,18.93
2022-11-25T19:06:04.735Z,23.17
2022-11-25T19:08:36.785Z,19.50
2022-11-25T19:11:07.468Z,20.90
2022-11-25T19:13:38.186Z,22.90
2022-11-25T19:16:11.819Z,20.77
2022-11-25T19:18:41.571Z,20.20
2022-11-25T19:21:12.791Z,20.40
2022-11-25T19:23:45.320Z,20.80
2022-11-25T19:26:17.451Z,21.40
2022-11-25T19:28:50.020Z,21.30
2022-11-25T19:31:20.507Z,19.70
2022-11-25T19:33:53.344Z,20.23
2022-11-25T19:36:27.495Z,19.63
2022-11-25T19:39:00.382Z,22.00
2022-11-25T19:41:29.917Z,19.80
2022-11-25T19:43:59.546Z,19.73
2022-11-25T19:46:46.457Z,20.83
2022-11-25T19:49:21.331Z,17.97
2022-11-25T19:51:51.524Z,20.53
2022-11-25T19:54:23.792Z,18.47
2022-11-25T19:56:53.360Z,19.20
2022-11-25T19:59:22.809Z,20.93
2022-11-25T20:01:53.372Z,19.83
2022-11-25T20:04:24.166Z,23.00
2022-11-25T20:06:53.739Z,19.80
2022-11-25T20:09:25.878Z,20.07
2022-11-25T20:11:58.744Z,20.97
2022-11-25T20:14:28.240Z,19.73
2022-11-25T20:16:57.809Z,21.00
2022-11-25T20:19:27.344Z,19.47
2022-11-25T20:21:56.874Z,18.00
2022-11-25T20:24:29.068Z,19.30
2022-11-25T20:26:59.479Z,27.87
2022-11-25T20:29:30.585Z,18.93
2022-11-25T20:32:01.085Z,19.20
2022-11-25T20:34:31.346Z,19.53
2022-11-25T20:37:01.383Z,18.90
2022-11-25T20:39:33.615Z,20.87
2022-11-25T20:42:03.031Z,17.77
2022-11-25T20:44:32.540Z,20.57
2022-11-25T20:47:02.032Z,18.37
2022-11-25T20:49:33.245Z,17.43
2022-11-25T20:52:02.773Z,24.97
2022-11-25T20:54:36.544Z,18.10
2022-11-25T20:57:06.504Z,19.53
2022-11-25T20:59:36.200Z,16.63
2022-11-25T21:02:05.784Z,17.93
2022-11-25T21:04:35.525Z,18.27
2022-11-25T21:07:05.991Z,17.70
2022-11-25T21:09:38.769Z,16.30
2022-11-25T21:12:12.450Z,18.77
2022-11-25T21:14:45.381Z,22.93
2022-11-25T21:17:14.982Z,18.30
2022-11-25T21:19:44.579Z,22.23
2022-11-25T21:22:16.592Z,18.70
2022-11-25T21:24:48.710Z,17.77
2022-11-25T21:27:19.970Z,15.93
2022-11-25T21:29:49.495Z,16.40
2022-11-25T21:32:23.300Z,22.37
2022-11-25T21:34:53.184Z,18.07
2022-11-25T21:37:30.083Z,16.27
2022-11-25T21:40:02.532Z,16.37
2022-11-25T21:42:32.946Z,15.30
2022-11-25T21:45:02.465Z,16.60
2022-11-25T21:47:32.358Z,31.03
2022-11-25T21:50:01.984Z,15.80
2022-11-25T21:52:31.514Z,13.87
2022-11-25T21:55:03.638Z,13.67
2022-11-25T21:57:34.360Z,15.43
2022-11-25T22:00:03.795Z,14.03
2022-11-25T22:02:33.334Z,15.03
2022-11-25T22:05:02.904Z,15.20
2022-11-25T22:07:32.690Z,13.70
2022-11-25T22:10:05.916Z,13.90
2022-11-25T22:12:41.023Z,14.67
2022-11-25T22:15:16.936Z,14.37
2022-11-25T22:17:46.795Z,12.27
2022-11-25T22:20:29.074Z,13.50
2022-11-25T22:22:58.884Z,13.13
2022-11-25T22:25:33.104Z,13.27
2022-11-25T22:28:02.641Z,13.40
2022-11-25T22:30:32.096Z,14.40
2022-11-25T22:33:03.524Z,12.50
2022-11-25T22:35:33.071Z,12.10
2022-11-25T22:38:03.106Z,12.43
2022-11-25T22:40:35.159Z,13.70
2022-11-25T22:43:04.620Z,12.63
2022-11-25T22:45:36.122Z,15.07
2022-11-25T22:48:07.887Z,12.70
2022-11-25T22:50:37.380Z,12.80
2022-11-25T22:53:11.634Z,13.00
2022-11-25T22:55:44.288Z,13.23
2022-11-25T22:58:15.005Z,12.03
2022-11-25T23:00:46.187Z,18.60
2022-11-25T23:03:20.421Z,12.50
2022-11-25T23:05:50.934Z,12.10
2022-11-25T23:08:23.011Z,12.20
2022-11-25T23:10:55.465Z,12.20
2022-11-25T23:13:25.441Z,16.23
2022-11-25T23:15:56.683Z,11.60
2022-11-25T23:18:30.921Z,10.90
2022-11-25T23:21:03.821Z,11.10
2022-11-25T23:23:33.969Z,10.87
2022-11-25T23:26:05.952Z,16.37
2022-11-25T23:28:35.437Z,13.20
2022-11-25T23:31:05.223Z,14.30
2022-11-25T23:33:39.717Z,36.37
2022-11-25T23:36:11.901Z,16.10
2022-11-25T23:38:45.044Z,16.03
2022-11-25T23:41:20.375Z,26.47
2022-11-25T23:43:49.841Z,19.40
2022-11-25T23:46:21.561Z,12.20
2022-11-25T23:48:55.398Z,14.10
2022-11-25T23:51:25.490Z,12.53
2022-11-25T23:53:55.536Z,11.60
2022-11-25T23:56:28.638Z,12.87
2022-11-25T23:58:58.232Z,11.10
